Time;durP1;ratioP1;P1;durP2;ratioP2;P2;SDS_P1;SDS_P2;PMS_P1;PMS_P2;Temp;Humidity;BMP_temperature;BMP_pressure;BME280_temperature;BME280_humidity;BME280_pressure;Samples;Min_cycle;Max_cycle;Signal;HPM_P1;HPM_P2
2022/03/20 00:01:02;;;;;;;8.80;5.37;;;;;;;-3.44;58.51;98005.09;1717842;83;21514;-66
2022/03/20 00:03:31;;;;;;;10.57;5.73;;;;;;;-3.49;59.07;98005.64;1718207;83;21035;-66
2022/03/20 00:05:58;;;;;;;10.17;5.73;;;;;;;-3.50;59.36;98001.67;1718078;83;21028;-67
2022/03/20 00:08:25;;;;;;;10.27;5.30;;;;;;;-3.57;59.21;98004.18;1718123;83;21028;-66
2022/03/20 00:10:56;;;;;;;5.87;3.20;;;;;;;-3.55;59.04;97999.14;1718061;83;21080;-66
2022/03/20 00:13:23;;;;;;;9.77;4.53;;;;;;;-3.62;58.71;98000.77;1718253;83;21061;-66
2022/03/20 00:15:52;;;;;;;6.30;4.20;;;;;;;-3.74;58.80;97994.28;1708852;83;21546;-66
2022/03/20 00:18:23;;;;;;;11.17;5.00;;;;;;;-3.75;60.08;98009.27;1708169;84;21005;-66
2022/03/20 00:20:53;;;;;;;10.67;5.47;;;;;;;-3.74;59.20;97998.15;1708049;84;21049;-67
2022/03/20 00:23:22;;;;;;;9.23;4.93;;;;;;;-3.78;59.36;98002.56;1707951;84;21085;-66
2022/03/20 00:25:49;;;;;;;10.73;5.17;;;;;;;-3.76;59.13;98001.00;1708275;84;21036;-66
2022/03/20 00:28:18;;;;;;;6.17;3.70;;;;;;;-3.68;58.77;98015.36;1708156;84;21041;-67
2022/03/20 00:30:47;;;;;;;8.33;4.03;;;;;;;-3.65;58.49;98008.24;1708309;84;20969;-67
2022/03/20 00:33:14;;;;;;;8.23;4.83;;;;;;;-3.79;58.64;98005.94;1708164;84;21468;-68
2022/03/20 00:35:42;;;;;;;9.47;5.13;;;;;;;-3.84;58.53;98004.30;1707974;84;21071;-67
2022/03/20 00:38:09;;;;;;;7.67;4.90;;;;;;;-3.85;58.33;98009.36;1708066;84;21048;-67
2022/03/20 00:40:36;;;;;;;7.37;4.30;;;;;;;-3.83;58.68;98009.05;1708244;84;21503;-67
2022/03/20 00:43:06;;;;;;;7.40;4.50;;;;;;;-3.91;58.45;98004.61;1707930;84;21032;-67
2022/03/20 00:45:34;;;;;;;9.87;4.90;;;;;;;-3.94;58.48;98001.41;1708071;84;21036;-67
2022/03/20 00:48:01;;;;;;;7.53;3.40;;;;;;;-3.98;58.55;98003.63;1708219;84;21036;-66
2022/03/20 00:50:29;;;;;;;7.93;4.60;;;;;;;-4.00;58.81;98003.53;1708049;84;21527;-66
2022/03/20 00:52:57;;;;;;;8.70;4.57;;;;;;;-4.03;59.00;97994.65;1708081;84;21032;-66
2022/03/20 00:55:24;;;;;;;5.67;3.40;;;;;;;-4.02;58.90;97990.91;1708205;84;21064;-66
2022/03/20 00:57:51;;;;;;;8.73;4.67;;;;;;;-4.09;59.43;97993.80;1707832;84;20997;-66
2022/03/20 01:00:17;;;;;;;4.33;2.80;;;;;;;-4.21;59.19;97997.66;1708146;84;21041;-66
2022/03/20 01:02:45;;;;;;;7.90;4.17;;;;;;;-4.33;59.34;97994.49;1707997;84;20986;-66
2022/03/20 01:05:13;;;;;;;7.40;4.27;;;;;;;-4.37;59.83;98001.09;1708091;84;21009;-66
2022/03/20 01:07:40;;;;;;;9.37;3.23;;;;;;;-4.37;59.33;97993.38;1707997;84;21056;-66
2022/03/20 01:10:08;;;;;;;6.70;3.87;;;;;;;-4.40;60.16;97995.72;1707985;84;21053;-67
2022/03/20 01:12:38;;;;;;;8.47;3.90;;;;;;;-4.39;59.52;97989.37;1707996;84;21029;-67
2022/03/20 01:15:08;;;;;;;7.57;4.00;;;;;;;-4.40;60.22;97990.16;1707939;84;21080;-67
2022/03/20 01:17:35;;;;;;;8.33;4.17;;;;;;;-4.42;59.74;97993.41;1707901;84;21540;-67
2022/03/20 01:20:04;;;;;;;9.13;4.47;;;;;;;-4.62;61.41;97997.90;1708025;84;21051;-66
2022/03/20 01:22:30;;;;;;;9.40;4.10;;;;;;;-4.69;60.70;97999.88;1707906;84;21064;-67
2022/03/20 01:24:57;;;;;;;7.87;4.07;;;;;;;-4.69;60.76;98003.34;1708144;84;21013;-67
2022/03/20 01:27:23;;;;;;;7.53;4.10;;;;;;;-4.64;60.55;98002.42;1707944;84;21578;-66
2022/03/20 01:29:50;;;;;;;6.33;3.40;;;;;;;-4.64;60.79;98009.75;1708106;84;21005;-66
2022/03/20 01:32:17;;;;;;;7.83;4.20;;;;;;;-4.71;60.75;98007.50;1707938;84;21037;-67
2022/03/20 01:34:44;;;;;;;8.93;3.80;;;;;;;-4.73;61.13;98008.16;1708019;84;21004;-66
2022/03/20 01:37:11;;;;;;;5.33;3.03;;;;;;;-4.77;60.52;98004.42;1708000;84;21040;-67
2022/03/20 01:39:37;;;;;;;7.93;4.37;;;;;;;-4.80;61.07;98008.95;1707972;84;21044;-67
2022/03/20 01:42:09;;;;;;;6.13;3.50;;;;;;;-4.80;60.34;98009.34;1708080;84;21073;-66
2022/03/20 01:44:35;;;;;;;6.30;4.10;;;;;;;-4.78;60.40;98007.80;1707882;84;21021;-67
2022/03/20 01:47:12;;;;;;;5.93;3.37;;;;;;;-4.80;60.49;98008.95;1707896;84;21041;-67
2022/03/20 01:49:36;;;;;;;6.70;3.90;;;;;;;-4.78;60.57;98005.22;1707776;84;21021;-66
2022/03/20 01:52:10;;;;;;;7.87;4.23;;;;;;;-4.75;60.56;98006.73;1707855;84;21048;-67
2022/03/20 01:54:39;;;;;;;6.57;3.07;;;;;;;-4.72;60.27;98003.50;1707981;84;21017;-67
2022/03/20 01:57:07;;;;;;;4.70;2.60;;;;;;;-4.80;60.01;98008.95;1707977;84;21021;-67
2022/03/20 01:59:34;;;;;;;5.40;2.90;;;;;;;-4.76;60.11;98002.38;1708029;84;20985;-67
2022/03/20 02:02:06;;;;;;;8.33;3.97;;;;;;;-4.80;60.82;98007.66;1707957;84;21033;-67
2022/03/20 02:04:35;;;;;;;6.57;3.70;;;;;;;-4.83;60.47;98002.27;1708015;84;21048;-67
2022/03/20 02:07:04;;;;;;;6.47;3.80;;;;;;;-4.76;60.14;98010.11;1707643;84;21467;-67
2022/03/20 02:09:32;;;;;;;7.03;4.30;;;;;;;-4.72;59.89;98003.11;1708081;84;21029;-66
2022/03/20 02:12:00;;;;;;;6.17;4.07;;;;;;;-4.75;59.91;98009.31;1708064;84;21032;-67
2022/03/20 02:14:28;;;;;;;5.07;2.37;;;;;;;-4.80;59.67;98007.66;1708531;84;21041;-66
2022/03/20 02:16:56;;;;;;;5.90;3.40;;;;;;;-4.89;60.86;98012.46;1716585;84;21012;-66
2022/03/20 02:19:22;;;;;;;7.17;2.70;;;;;;;-5.00;59.93;98016.38;1716464;83;21025;-66
2022/03/20 02:21:50;;;;;;;10.10;4.43;;;;;;;-5.05;60.37;98017.67;1697999;84;21522;-68
2022/03/20 02:24:41;;;;;;;6.30;4.10;;;;;;;-5.07;60.07;98016.65;1716122;84;21049;-67
2022/03/20 02:27:16;;;;;;;6.07;3.50;;;;;;;-5.07;60.25;98019.63;1716374;84;21556;-67
2022/03/20 02:29:47;;;;;;;6.00;3.47;;;;;;;-5.11;60.53;98033.94;1716411;84;21487;-67
2022/03/20 02:32:17;;;;;;;5.60;3.10;;;;;;;-5.17;60.73;98025.70;1716367;84;21004;-66
2022/03/20 02:34:48;;;;;;;8.40;3.97;;;;;;;-5.16;60.93;98027.91;1716321;84;21459;-66
2022/03/20 02:37:21;;;;;;;7.77;3.90;;;;;;;-5.15;60.39;98025.83;1716358;84;21020;-66
2022/03/20 02:39:50;;;;;;;5.92;3.30;;;;;;;-5.09;60.37;98013.45;1716653;84;21013;-67
2022/03/20 02:42:17;;;;;;;7.90;3.67;;;;;;;-5.07;59.88;98014.47;1716379;84;21036;-67
2022/03/20 02:45:03;;;;;;;6.70;3.50;;;;;;;-5.10;59.83;98022.84;1716443;84;21447;-67
2022/03/20 02:47:39;;;;;;;5.47;3.00;;;;;;;-5.17;60.16;98028.67;1716123;84;21021;-66
2022/03/20 02:50:11;;;;;;;5.23;3.30;;;;;;;-5.28;60.13;98035.52;1716268;84;21024;-66
2022/03/20 02:53:03;;;;;;;7.03;3.13;;;;;;;-5.44;60.23;98030.42;1716102;84;21029;-66
2022/03/20 02:55:35;;;;;;;6.00;3.07;;;;;;;-5.53;61.37;98030.05;1704531;83;21585;-66
2022/03/20 02:58:05;;;;;;;8.30;3.60;;;;;;;-5.60;61.81;98036.34;1718944;83;21043;-66
2022/03/20 03:00:34;;;;;;;4.53;2.07;;;;;;;-5.60;61.77;98041.49;1702955;84;21006;-66
2022/03/20 03:03:04;;;;;;;5.00;3.17;;;;;;;-5.56;62.01;98034.95;1678777;84;20975;-66
2022/03/20 03:05:32;;;;;;;4.20;2.90;;;;;;;-5.69;61.82;98037.79;1703040;84;21046;-66
2022/03/20 03:11:02;;;;;;;5.47;3.27;;;;;;;-5.69;61.73;98042.04;1702935;84;21005;-66
2022/03/20 03:13:40;;;;;;;5.22;2.98;;;;;;;-5.60;61.84;98038.03;1703046;84;21057;-66
2022/03/20 03:16:13;;;;;;;5.13;2.93;;;;;;;-5.59;62.43;98039.45;1680269;84;21034;-66
2022/03/20 03:18:47;;;;;;;7.57;3.00;;;;;;;-5.69;62.11;98051.94;1666237;86;21030;-66
2022/03/20 03:21:15;;;;;;;5.73;3.23;;;;;;;-5.71;62.13;98056.05;1668014;86;20998;-66
2022/03/20 03:23:43;;;;;;;7.80;3.83;;;;;;;-5.75;62.02;98062.98;1668559;86;21022;-66
2022/03/20 03:26:11;;;;;;;5.23;2.90;;;;;;;-5.76;62.65;98057.33;1669026;86;21066;-66
2022/03/20 03:28:38;;;;;;;7.60;2.80;;;;;;;-5.73;62.31;98063.12;1668944;85;21054;-66
2022/03/20 03:31:08;;;;;;;5.47;3.13;;;;;;;-5.82;62.14;98056.84;1668480;86;21062;-66
2022/03/20 03:36:25;;;;;;;7.27;2.80;;;;;;;-5.84;62.15;98051.05;1669046;86;21015;-65
2022/03/20 03:38:52;;;;;;;6.87;3.33;;;;;;;-5.82;61.95;98051.69;1667334;84;21073;-65
2022/03/20 03:41:19;;;;;;;4.60;2.47;;;;;;;-5.88;62.02;98044.34;1667587;85;21072;-66
2022/03/20 03:43:46;;;;;;;11.17;3.47;;;;;;;-5.96;62.47;98046.70;1667734;86;21040;-66
2022/03/20 03:46:13;;;;;;;5.53;3.27;;;;;;;-6.03;62.25;98046.05;1667364;85;21016;-65
2022/03/20 03:48:39;;;;;;;5.23;3.03;;;;;;;-6.07;62.29;98057.77;1667705;85;21175;-65
2022/03/20 03:51:06;;;;;;;5.03;2.30;;;;;;;-6.01;62.29;98053.12;1667546;86;21470;-66
2022/03/20 03:53:33;;;;;;;4.40;2.90;;;;;;;-6.04;62.38;98059.69;1667338;86;20994;-66
2022/03/20 03:55:59;;;;;;;5.73;3.00;;;;;;;-6.08;63.07;98061.08;1667525;85;21503;-66
2022/03/20 03:58:27;;;;;;;5.13;3.03;;;;;;;-6.02;62.51;98061.62;1667179;86;21731;-66
2022/03/20 04:00:54;;;;;;;6.03;3.63;;;;;;;-5.96;62.33;98054.41;1667578;85;21064;-65
2022/03/20 04:03:21;;;;;;;5.53;2.70;;;;;;;-5.95;62.00;98057.87;1667514;85;21009;-66
2022/03/20 04:05:47;;;;;;;8.43;3.30;;;;;;;-6.00;61.79;98051.45;1667411;86;21064;-66
2022/03/20 04:08:16;;;;;;;6.57;3.07;;;;;;;-6.00;62.29;98051.45;1667427;85;21490;-66
2022/03/20 04:10:43;;;;;;;7.77;3.23;;;;;;;-6.08;61.94;98055.94;1667635;85;21009;-66
2022/03/20 04:13:11;;;;;;;5.77;3.00;;;;;;;-6.07;62.08;98061.97;1667218;86;21065;-66
2022/03/20 04:15:39;;;;;;;7.20;2.80;;;;;;;-6.05;62.27;98055.30;1681473;84;21068;-66
2022/03/20 04:18:05;;;;;;;6.80;3.60;;;;;;;-6.01;62.31;98059.94;1708075;84;21024;-66
2022/03/20 04:20:33;;;;;;;7.03;3.10;;;;;;;-6.01;62.18;98049.27;1707909;84;21013;-66
2022/03/20 04:25:45;;;;;;;4.40;2.80;;;;;;;-6.13;62.12;98050.80;1708026;84;21018;-66
2022/03/20 04:28:11;;;;;;;6.23;3.17;;;;;;;-6.20;62.59;98053.61;1707931;84;21033;-66
2022/03/20 04:30:38;;;;;;;5.73;2.80;;;;;;;-6.17;62.83;98052.61;1708286;84;21009;-66
2022/03/20 04:33:05;;;;;;;5.93;3.00;;;;;;;-6.08;62.78;98043.09;1708169;84;21101;-66
2022/03/20 04:35:32;;;;;;;4.77;3.23;;;;;;;-6.03;62.48;98049.52;1707851;84;21037;-65
2022/03/20 04:37:58;;;;;;;4.93;2.87;;;;;;;-6.05;62.48;98054.02;1707953;84;21045;-66
2022/03/20 04:40:25;;;;;;;6.30;2.97;;;;;;;-6.17;64.43;98048.77;1708371;84;20996;-66
2022/03/20 04:42:52;;;;;;;5.77;3.00;;;;;;;-6.29;63.55;98055.42;1708025;84;21064;-66
2022/03/20 04:45:18;;;;;;;5.97;3.00;;;;;;;-6.33;63.72;98056.42;1708267;84;21009;-66
2022/03/20 04:58:46;;;;;;;5.27;2.57;;;;;;;-6.05;63.58;98070.72;1708227;84;21025;-66
2022/03/20 05:01:13;;;;;;;8.03;3.63;;;;;;;-5.98;63.75;98066.62;1708156;84;21001;-66
2022/03/20 05:03:40;;;;;;;6.13;3.20;;;;;;;-6.00;64.01;98068.16;1707967;84;21012;-66
2022/03/20 05:06:07;;;;;;;6.13;3.30;;;;;;;-5.98;64.20;98080.75;1708011;84;21037;-66
2022/03/20 05:08:37;;;;;;;6.67;3.20;;;;;;;-5.89;63.96;98077.27;1707863;84;21008;-66
2022/03/20 05:13:50;;;;;;;39.73;15.37;;;;;;;-5.62;64.42;98082.00;1708078;84;21008;-66
2022/03/20 05:16:18;;;;;;;24.93;12.77;;;;;;;-5.55;64.08;98079.17;1712007;83;21013;-66
2022/03/20 05:18:44;;;;;;;24.57;11.23;;;;;;;-5.59;65.46;98089.97;1716490;84;21064;-65
2022/03/20 05:21:11;;;;;;;35.67;13.67;;;;;;;-5.52;66.01;98101.29;1716498;84;21027;-66
2022/03/20 05:23:39;;;;;;;15.03;7.37;;;;;;;-5.41;65.01;98095.37;1716064;83;20988;-66
2022/03/20 05:26:06;;;;;;;12.97;6.50;;;;;;;-5.27;64.61;98090.06;1716500;83;21024;-66
2022/03/20 05:28:33;;;;;;;14.33;7.43;;;;;;;-5.08;64.03;98095.06;1716375;83;21048;-66
2022/03/20 05:31:00;;;;;;;22.33;10.73;;;;;;;-5.06;63.77;98094.80;1716285;83;21458;-66
2022/03/20 05:33:29;;;;;;;24.83;12.10;;;;;;;-5.07;64.86;98103.28;1716423;84;20989;-66
2022/03/20 05:35:55;;;;;;;12.50;6.50;;;;;;;-5.02;65.00;98092.58;1716570;83;21523;-66
2022/03/20 05:38:23;;;;;;;21.13;9.53;;;;;;;-5.03;64.25;98092.47;1716331;84;21005;-66
2022/03/20 05:41:43;;;;;;;29.93;14.10;;;;;;;-4.99;65.43;98089.35;1716369;83;21045;-67
2022/03/20 05:43:19;;;;;;;30.47;14.53;;;;;;;-4.83;65.11;98101.42;1713554;84;21083;-66
2022/03/20 05:45:46;;;;;;;30.30;14.67;;;;;;;-4.71;64.84;98106.67;1716298;84;20972;-66
2022/03/20 05:48:13;;;;;;;20.93;11.57;;;;;;;-4.52;64.11;98097.42;1716676;84;20985;-67
2022/03/20 05:50:39;;;;;;;20.80;10.47;;;;;;;-4.39;64.05;98104.05;1716422;83;21029;-67
2022/03/20 05:53:06;;;;;;;22.50;10.13;;;;;;;-4.15;64.12;98102.92;1716386;83;21037;-67
2022/03/20 05:58:17;;;;;;;19.77;9.83;;;;;;;-3.84;59.61;98113.02;1716315;84;21510;-67
2022/03/20 06:00:43;;;;;;;17.67;8.87;;;;;;;-3.80;60.96;98111.20;1716507;84;20969;-66
2022/03/20 06:03:12;;;;;;;18.90;8.03;;;;;;;-3.73;61.08;98116.95;1716582;84;21004;-66
2022/03/20 06:05:39;;;;;;;28.87;12.97;;;;;;;-3.70;60.02;98118.87;1716571;83;21044;-67
2022/03/20 06:08:06;;;;;;;24.63;13.37;;;;;;;-3.40;59.66;98108.69;1716339;83;21555;-67
2022/03/20 06:10:33;;;;;;;21.90;10.93;;;;;;;-3.10;58.80;98111.74;1716044;83;21135;-67
2022/03/20 06:13:02;;;;;;;14.60;6.93;;;;;;;-2.89;57.52;98113.75;1716362;83;21076;-67
2022/03/20 06:15:29;;;;;;;10.73;5.17;;;;;;;-2.73;57.30;98113.17;1715824;84;21067;-67
2022/03/20 06:17:57;;;;;;;11.87;5.87;;;;;;;-2.60;56.02;98111.98;1708169;84;21045;-67
2022/03/20 06:20:25;;;;;;;11.47;5.63;;;;;;;-2.47;54.95;98117.27;1707764;84;21048;-67
2022/03/20 06:22:52;;;;;;;19.40;9.90;;;;;;;-2.35;54.73;98113.35;1707777;84;21041;-67
2022/03/20 06:25:20;;;;;;;18.47;9.20;;;;;;;-2.41;54.34;98115.11;1707609;84;21602;-67
2022/03/20 06:27:50;;;;;;;16.87;8.50;;;;;;;-2.33;54.12;98121.23;1707696;84;21091;-66
2022/03/20 06:30:19;;;;;;;14.33;5.70;;;;;;;-2.28;52.79;98119.47;1708053;84;21024;-67
2022/03/20 06:32:48;;;;;;;8.13;5.30;;;;;;;-2.09;53.49;98122.98;1707828;84;20989;-67
2022/03/20 06:35:18;;;;;;;11.57;4.77;;;;;;;-1.91;53.87;98126.37;1707948;84;21056;-66
2022/03/20 06:37:47;;;;;;;9.07;5.20;;;;;;;-1.87;51.56;98125.77;1708193;84;21065;-66
2022/03/20 06:40:15;;;;;;;9.90;5.30;;;;;;;-1.80;52.23;98124.12;1707746;84;21044;-67
2022/03/20 06:42:43;;;;;;;12.20;5.20;;;;;;;-1.81;52.45;98128.41;1708221;84;20978;-66
2022/03/20 06:45:13;;;;;;;15.57;7.10;;;;;;;-1.80;52.49;98122.42;1707983;84;21040;-66
2022/03/20 06:47:42;;;;;;;13.73;7.27;;;;;;;-1.64;51.80;98120.89;1707864;84;21048;-66
2022/03/20 06:50:11;;;;;;;12.80;6.67;;;;;;;-1.54;51.80;98113.89;1708091;84;21032;-66
2022/03/20 06:52:38;;;;;;;26.60;15.70;;;;;;;-1.36;51.63;98112.02;1708057;84;21033;-66
2022/03/20 06:55:08;;;;;;;9.27;5.57;;;;;;;-1.26;49.61;98126.50;1707637;84;21033;-67
2022/03/20 06:57:35;;;;;;;7.00;4.00;;;;;;;-1.14;50.28;98128.63;1708049;84;21507;-67
2022/03/20 07:00:06;;;;;;;7.43;4.83;;;;;;;-0.93;50.64;98122.30;1708265;84;21045;-67
2022/03/20 07:02:34;;;;;;;13.70;6.00;;;;;;;-0.75;49.42;98116.53;1707642;84;21006;-67
2022/03/20 07:05:02;;;;;;;8.63;3.87;;;;;;;-0.61;50.36;98124.80;1708040;84;20969;-67
2022/03/20 07:07:29;;;;;;;5.87;3.80;;;;;;;-0.47;49.50;98125.30;1707922;84;21088;-67
2022/03/20 07:09:56;;;;;;;8.80;4.70;;;;;;;-0.34;48.40;98126.09;1707652;84;21000;-67
2022/03/20 07:12:22;;;;;;;6.00;3.73;;;;;;;-0.28;47.17;98118.69;1708294;84;21017;-67
2022/03/20 07:14:50;;;;;;;6.90;3.93;;;;;;;-0.22;47.84;98116.09;1707789;84;21053;-67
2022/03/20 07:17:18;;;;;;;7.03;4.07;;;;;;;-0.15;47.41;98117.39;1713737;84;21048;-67
2022/03/20 07:19:45;;;;;;;10.30;5.83;;;;;;;-0.01;47.28;98110.46;1716378;84;21024;-67
2022/03/20 07:22:14;;;;;;;9.03;4.97;;;;;;;0.09;46.96;98106.34;1716025;84;21037;-67
2022/03/20 07:24:43;;;;;;;7.03;4.40;;;;;;;0.10;46.03;98104.63;1716268;83;21020;-67
2022/03/20 07:29:58;;;;;;;6.37;4.43;;;;;;;0.36;46.12;98098.47;1716535;83;20969;-67
2022/03/20 07:32:25;;;;;;;10.50;5.60;;;;;;;0.59;45.99;98101.16;1716269;83;21008;-67
2022/03/20 07:34:52;;;;;;;8.93;4.10;;;;;;;0.70;45.46;98106.98;1716313;84;21114;-67
2022/03/20 07:37:20;;;;;;;12.43;7.07;;;;;;;0.69;43.79;98115.20;1716279;83;21080;-67
2022/03/20 07:39:51;;;;;;;9.37;5.80;;;;;;;0.77;44.61;98113.94;1716250;83;20977;-67
2022/03/20 07:42:20;;;;;;;12.13;7.27;;;;;;;0.91;44.34;98113.86;1716425;84;21000;-67
2022/03/20 07:44:48;;;;;;;8.33;4.73;;;;;;;0.88;43.12;98108.48;1716378;83;21000;-67
2022/03/20 07:47:21;;;;;;;12.73;7.27;;;;;;;0.88;43.61;98104.17;1716461;83;21092;-67
2022/03/20 07:49:50;;;;;;;13.13;7.50;;;;;;;0.93;44.23;98109.65;1692295;84;20983;-67
2022/03/20 07:52:18;;;;;;;8.13;4.80;;;;;;;1.03;44.22;98102.89;1716308;84;21036;-67
2022/03/20 07:54:46;;;;;;;10.70;5.30;;;;;;;1.22;44.89;98100.55;1698250;84;21044;-67
2022/03/20 07:57:17;;;;;;;11.93;5.77;;;;;;;1.38;44.08;98093.22;1716317;84;21052;-67
2022/03/20 07:59:44;;;;;;;9.97;6.23;;;;;;;1.42;41.62;98073.50;1716356;83;21005;-65
2022/03/20 08:02:11;;;;;;;10.47;5.80;;;;;;;1.60;44.31;98070.63;1716400;84;21009;-65
2022/03/20 08:04:38;;;;;;;8.67;5.67;;;;;;;1.73;43.29;98071.78;1716220;84;20998;-64
2022/03/20 08:07:05;;;;;;;8.50;6.10;;;;;;;1.81;43.10;98061.79;1716520;83;20993;-64
2022/03/20 08:09:32;;;;;;;6.77;4.37;;;;;;;1.94;42.57;98068.19;1716569;84;20981;-64
2022/03/20 08:12:01;;;;;;;10.37;4.90;;;;;;;2.12;41.68;98057.86;1716451;83;21070;-64
2022/03/20 08:14:28;;;;;;;9.87;5.10;;;;;;;2.26;41.08;98057.70;1716504;84;20992;-64
2022/03/20 08:16:55;;;;;;;10.73;5.20;;;;;;;2.29;40.62;98061.76;1716352;84;21029;-64
2022/03/20 08:19:23;;;;;;;8.80;5.23;;;;;;;2.46;41.25;98069.17;1716303;84;21028;-64
2022/03/20 08:21:51;;;;;;;10.10;6.03;;;;;;;2.62;41.47;98052.23;1716454;84;21053;-64
2022/03/20 08:24:18;;;;;;;8.23;4.83;;;;;;;2.87;40.60;98045.64;1716509;84;21021;-65
2022/03/20 08:26:45;;;;;;;8.47;5.27;;;;;;;2.93;39.55;98035.53;1716369;83;21021;-64
2022/03/20 08:29:14;;;;;;;7.90;4.60;;;;;;;2.94;39.14;98038.62;1716422;84;21008;-64
2022/03/20 08:31:47;;;;;;;8.57;5.27;;;;;;;3.06;39.19;98037.94;1716620;83;21004;-64
2022/03/20 08:34:15;;;;;;;8.80;5.00;;;;;;;3.22;37.75;98029.14;1716441;83;20989;-65
2022/03/20 08:36:44;;;;;;;11.07;6.57;;;;;;;3.35;38.65;98035.84;1716549;84;21001;-65
2022/03/20 08:39:11;;;;;;;10.83;6.20;;;;;;;3.45;38.78;98031.55;1716346;83;21017;-65
2022/03/20 08:41:38;;;;;;;12.20;5.83;;;;;;;3.52;39.25;98027.12;1716359;84;21020;-65
2022/03/20 08:44:05;;;;;;;10.00;5.53;;;;;;;3.53;38.40;98022.41;1716657;84;20980;-65
2022/03/20 08:46:33;;;;;;;10.03;5.80;;;;;;;3.59;38.58;98020.06;1716038;83;21514;-65
2022/03/20 08:49:07;;;;;;;12.73;6.23;;;;;;;3.71;39.77;98021.06;1716174;84;21092;-64
2022/03/20 08:51:35;;;;;;;8.07;4.87;;;;;;;3.74;37.64;98018.59;1716460;83;21017;-64
2022/03/20 08:54:02;;;;;;;11.07;6.00;;;;;;;3.74;39.45;98019.02;1716509;84;21073;-65
2022/03/20 08:56:30;;;;;;;8.83;6.13;;;;;;;3.85;39.41;98020.39;1716157;83;21107;-65
2022/03/20 08:58:57;;;;;;;9.30;5.40;;;;;;;3.97;39.28;98019.66;1716495;83;21112;-64
2022/03/20 09:01:24;;;;;;;12.07;5.60;;;;;;;4.11;39.36;98017.69;1716384;84;21056;-64
2022/03/20 09:03:51;;;;;;;8.43;5.43;;;;;;;4.27;38.24;98014.04;1716702;83;20973;-65
2022/03/20 09:06:22;;;;;;;9.63;5.30;;;;;;;4.48;38.35;98011.05;1716435;83;21550;-65
2022/03/20 09:08:50;;;;;;;9.70;5.87;;;;;;;4.44;36.08;98005.65;1716368;83;21013;-65
2022/03/20 09:11:18;;;;;;;10.83;6.10;;;;;;;4.38;36.54;97998.83;1716456;83;21029;-65
2022/03/20 09:13:45;;;;;;;9.53;5.80;;;;;;;4.40;36.86;98006.33;1716622;84;21031;-65
2022/03/20 09:19:07;;;;;;;11.97;7.30;;;;;;;4.48;35.65;97994.48;1716553;83;21013;-65
2022/03/20 09:21:38;;;;;;;11.67;6.50;;;;;;;4.53;35.62;97991.65;1716429;84;21040;-65
2022/03/20 09:24:06;;;;;;;9.30;6.20;;;;;;;4.52;34.86;97993.80;1716531;84;21057;-65
2022/03/20 09:26:33;;;;;;;9.50;6.60;;;;;;;4.56;35.08;97991.77;1716311;83;21518;-65
2022/03/20 09:29:01;;;;;;;10.10;5.57;;;;;;;4.74;36.45;97983.44;1716160;83;21095;-65
2022/03/20 09:31:31;;;;;;;9.43;5.87;;;;;;;4.88;35.10;97983.11;1716408;83;21048;-65
2022/03/20 09:33:56;;;;;;;8.30;5.70;;;;;;;5.00;34.87;97987.55;1716701;84;21032;-65
2022/03/20 09:36:23;;;;;;;9.00;6.13;;;;;;;5.10;35.11;97989.72;1716071;84;21032;-65
2022/03/20 09:38:50;;;;;;;8.13;5.43;;;;;;;5.16;32.94;97978.17;1716489;84;21537;-64
2022/03/20 09:41:17;;;;;;;9.27;5.60;;;;;;;5.14;32.91;97978.55;1716275;83;21024;-65
2022/03/20 09:43:46;;;;;;;8.57;5.97;;;;;;;5.22;33.87;97978.86;1716488;84;21001;-65
2022/03/20 09:46:15;;;;;;;10.43;5.90;;;;;;;5.23;33.82;97967.97;1716475;83;21028;-64
2022/03/20 09:48:44;;;;;;;7.00;4.43;;;;;;;5.17;34.01;97985.22;1716607;83;21048;-65
2022/03/20 09:51:10;;;;;;;6.80;4.47;;;;;;;5.24;30.12;97986.37;1716410;84;21024;-64
2022/03/20 09:53:37;;;;;;;9.73;6.03;;;;;;;5.22;30.97;97988.02;1716535;83;21048;-65
2022/03/20 09:56:07;;;;;;;7.03;4.47;;;;;;;5.23;30.46;97983.67;1716353;83;21483;-65
2022/03/20 09:58:34;;;;;;;7.53;4.40;;;;;;;5.29;29.73;97981.30;1716428;84;20988;-65
2022/03/20 10:01:02;;;;;;;7.83;4.70;;;;;;;5.52;30.59;97977.89;1716509;83;21470;-65
2022/03/20 10:03:29;;;;;;;7.70;4.43;;;;;;;5.59;31.20;97980.31;1716201;84;21631;-65
2022/03/20 10:06:06;;;;;;;6.00;4.70;;;;;;;5.69;30.20;97978.94;1716341;83;21025;-65
2022/03/20 10:08:33;;;;;;;9.27;4.70;;;;;;;5.62;30.13;97986.58;1716469;83;21009;-65
2022/03/20 10:11:15;;;;;;;8.70;4.97;;;;;;;5.61;30.50;97983.46;1716208;84;21068;-65
2022/03/20 10:14:16;;;;;;;7.70;4.45;;;;;;;5.71;30.80;97979.91;1716658;84;21001;-65
2022/03/20 10:16:57;;;;;;;7.80;5.10;;;;;;;5.77;30.52;97978.42;1715881;83;21016;-65
2022/03/20 10:19:27;;;;;;;6.90;4.70;;;;;;;5.91;31.12;97976.31;1707032;84;21028;-65
2022/03/20 10:22:01;;;;;;;7.47;5.37;;;;;;;5.80;31.02;97981.16;1716668;84;21028;-65
2022/03/20 10:24:31;;;;;;;8.90;4.77;;;;;;;5.94;30.52;97979.50;1716418;83;21017;-65
2022/03/20 10:27:06;;;;;;;9.30;4.53;;;;;;;6.03;31.29;97972.87;1716277;84;21459;-65
2022/03/20 10:29:35;;;;;;;9.83;5.10;;;;;;;6.01;30.51;97980.20;1716447;84;21558;-65
2022/03/20 10:32:09;;;;;;;8.67;4.93;;;;;;;5.98;30.34;97984.03;1716303;83;21032;-65
2022/03/20 10:35:03;;;;;;;15.07;9.87;;;;;;;6.05;29.84;97969.91;1716443;84;21025;-64
2022/03/20 10:37:51;;;;;;;11.77;7.40;;;;;;;5.99;28.90;97954.36;1716217;84;21060;-64
2022/03/20 10:40:23;;;;;;;9.30;5.70;;;;;;;5.98;30.08;97961.76;1716189;84;20996;-65
2022/03/20 10:43:16;;;;;;;9.53;5.43;;;;;;;6.11;28.10;97959.17;1716344;84;21005;-65
2022/03/20 10:45:54;;;;;;;9.58;6.05;;;;;;;6.52;30.50;97951.89;1716592;83;21025;-65
2022/03/20 10:48:34;;;;;;;9.17;5.47;;;;;;;6.85;31.01;97950.84;1716111;84;21578;-65
2022/03/20 10:51:02;;;;;;;8.13;5.23;;;;;;;7.14;30.82;97950.08;1716388;84;21024;-65
2022/03/20 10:53:28;;;;;;;8.00;5.57;;;;;;;7.46;30.90;97943.66;1716403;83;21048;-65
2022/03/20 10:56:00;;;;;;;6.97;5.03;;;;;;;7.70;29.15;97939.99;1716367;84;21514;-65
2022/03/20 10:58:26;;;;;;;7.57;4.80;;;;;;;7.91;29.64;97926.59;1715099;84;21021;-65
2022/03/20 11:00:53;;;;;;;7.73;4.87;;;;;;;8.16;27.77;97923.80;1716614;84;21008;-65
2022/03/20 11:03:22;;;;;;;11.27;6.77;;;;;;;8.22;28.04;97909.97;1716315;84;21040;-66
2022/03/20 11:05:54;;;;;;;6.97;5.30;;;;;;;8.48;27.29;97916.39;1716501;84;21033;-65
2022/03/20 11:08:23;;;;;;;7.77;4.80;;;;;;;8.56;26.48;97910.47;1716654;84;21072;-65
2022/03/20 11:10:49;;;;;;;6.73;4.77;;;;;;;8.61;24.68;97904.02;1716226;83;21559;-65
2022/03/20 11:13:17;;;;;;;8.00;5.20;;;;;;;9.12;27.49;97903.96;1716553;83;21005;-65
2022/03/20 11:15:45;;;;;;;7.07;5.33;;;;;;;9.32;24.62;97898.73;1716302;83;20985;-65
2022/03/20 11:18:15;;;;;;;7.30;4.77;;;;;;;9.53;24.44;97893.09;1716248;84;21078;-65
2022/03/20 11:20:46;;;;;;;6.33;4.67;;;;;;;9.95;25.42;97882.58;1716007;83;21017;-65
2022/03/20 11:23:15;;;;;;;6.03;4.33;;;;;;;10.49;23.39;97886.72;1716353;84;21502;-65
2022/03/20 11:25:45;;;;;;;6.55;4.60;;;;;;;10.97;24.84;97881.39;1716205;84;21051;-65
2022/03/20 11:28:14;;;;;;;8.85;4.87;;;;;;;11.51;25.35;97879.57;1716315;84;21045;-65
2022/03/20 11:30:44;;;;;;;7.30;5.03;;;;;;;11.61;22.75;97872.66;1716421;83;21016;-65
2022/03/20 11:33:12;;;;;;;8.90;4.35;;;;;;;11.81;23.02;97865.88;1716423;84;21036;-65
2022/03/20 11:35:39;;;;;;;5.35;4.00;;;;;;;12.12;22.23;97867.20;1691654;84;21029;-65
2022/03/20 11:38:23;;;;;;;6.70;4.35;;;;;;;12.51;20.45;97864.52;1716102;83;21100;-65
2022/03/20 11:41:17;;;;;;;5.30;4.72;;;;;;;12.72;21.60;97865.15;1716339;84;21055;-65
2022/03/20 11:43:48;;;;;;;7.78;4.78;;;;;;;12.92;20.68;97860.48;1716348;84;21515;-66
2022/03/20 11:46:27;;;;;;;7.62;4.78;;;;;;;12.82;20.35;97855.97;1712779;84;21079;-66
2022/03/20 11:49:20;;;;;;;7.67;4.75;;;;;;;13.01;19.87;97855.27;1715841;84;21048;-66
2022/03/20 11:52:09;;;;;;;6.75;4.35;;;;;;;13.04;19.16;97838.05;1716311;84;21069;-65
2022/03/20 11:54:44;;;;;;;5.65;4.08;;;;;;;12.81;19.08;97841.84;1715861;84;21534;-66
2022/03/20 11:57:37;;;;;;;6.70;4.95;;;;;;;13.09;19.72;97834.12;1715389;84;21560;-65
2022/03/20 12:00:18;;;;;;;11.35;9.68;;;;;;;13.12;19.31;97831.48;1716637;84;20989;-65
2022/03/20 12:03:05;;;;;;;5.92;4.75;;;;;;;12.79;18.79;97831.67;1716312;84;21028;-65
2022/03/20 12:06:00;;;;;;;6.20;3.65;;;;;;;12.69;19.78;97833.78;1716027;84;21072;-65
2022/03/20 12:09:01;;;;;;;4.37;3.55;;;;;;;12.56;18.25;97833.67;1715858;84;21041;-65
2022/03/20 12:12:12;;;;;;;5.45;3.72;;;;;;;11.98;17.76;97833.50;1716032;83;21040;-65
2022/03/20 12:14:53;;;;;;;9.65;3.83;;;;;;;12.34;20.00;97827.71;1716311;84;21467;-65
2022/03/20 12:17:21;;;;;;;5.85;4.10;;;;;;;12.50;18.70;97827.45;1716273;83;21080;-65